createdAt,value
2022-09-01T00:00:23.599Z,18.03
2022-09-01T00:02:51.752Z,18.00
2022-09-01T00:05:21.224Z,17.91
2022-09-01T00:07:51.245Z,17.86
2022-09-01T00:10:19.260Z,17.84
2022-09-01T00:12:49.728Z,17.80
2022-09-01T00:15:17.696Z,17.80
2022-09-01T00:17:45.875Z,17.82
2022-09-01T00:20:18.244Z,17.82
2022-09-01T00:22:49.762Z,17.77
2022-09-01T00:25:20.227Z,17.75
2022-09-01T00:27:49.282Z,17.70
2022-09-01T00:30:22.026Z,17.65
2022-09-01T00:32:50.065Z,17.63
2022-09-01T00:35:20.568Z,17.54
2022-09-01T00:37:49.931Z,17.49
2022-09-01T00:40:20.346Z,17.48
2022-09-01T00:42:49.240Z,17.47
2022-09-01T00:45:19.280Z,17.48
2022-09-01T00:47:52.061Z,17.52
2022-09-01T00:50:22.237Z,17.51
2022-09-01T00:52:55.763Z,17.55
2022-09-01T00:55:27.917Z,17.52
2022-09-01T00:57:56.633Z,17.56
2022-09-01T01:00:27.724Z,17.63
2022-09-01T01:02:56.798Z,17.67
2022-09-01T01:05:32.983Z,17.68
2022-09-01T01:08:08.192Z,17.67
2022-09-01T01:10:39.492Z,17.65
2022-09-01T01:13:10.258Z,17.65
2022-09-01T01:15:39.099Z,17.66
2022-09-01T01:18:07.144Z,17.66
2022-09-01T01:20:53.121Z,17.64
2022-09-01T01:23:27.875Z,17.64
2022-09-01T01:25:59.805Z,17.65
2022-09-01T01:28:32.145Z,17.63
2022-09-01T01:31:06.149Z,17.67
2022-09-01T01:33:42.982Z,17.65
2022-09-01T01:36:14.270Z,17.63
2022-09-01T01:38:43.950Z,17.63
2022-09-01T01:41:14.915Z,17.62
2022-09-01T01:43:43.301Z,17.60
2022-09-01T01:46:14.381Z,17.64
2022-09-01T01:48:43.815Z,17.61
2022-09-01T01:51:13.968Z,17.67
2022-09-01T01:53:52.517Z,17.69
2022-09-01T01:56:25.574Z,17.73
2022-09-01T01:58:54.659Z,17.80
2022-09-01T02:01:25.252Z,17.81
2022-09-01T02:03:54.757Z,17.81
2022-09-01T02:06:24.889Z,17.84
2022-09-01T02:08:58.054Z,17.80
2022-09-01T02:11:27.671Z,17.79
2022-09-01T02:13:57.713Z,17.78
2022-09-01T02:16:28.206Z,17.80
2022-09-01T02:18:57.430Z,17.78
2022-09-01T02:21:27.063Z,17.77
2022-09-01T02:24:01.429Z,17.79
2022-09-01T02:26:37.423Z,17.84
2022-09-01T02:29:17.871Z,17.86
2022-09-01T02:31:48.340Z,17.80
2022-09-01T02:34:17.146Z,17.80
2022-09-01T02:36:51.892Z,17.78
2022-09-01T02:39:26.528Z,17.71
2022-09-01T02:41:56.757Z,17.70
2022-09-01T02:44:29.195Z,17.66
2022-09-01T02:46:58.761Z,17.62
2022-09-01T02:49:29.925Z,17.57
2022-09-01T02:52:01.821Z,17.55
2022-09-01T02:54:32.373Z,17.56
2022-09-01T02:57:03.143Z,17.60
2022-09-01T02:59:32.045Z,17.57
2022-09-01T03:02:02.642Z,17.58
2022-09-01T03:04:35.179Z,17.55
2022-09-01T03:07:04.406Z,17.53
2022-09-01T03:09:33.727Z,17.48
2022-09-01T03:12:07.101Z,17.45
2022-09-01T03:14:35.661Z,17.46
2022-09-01T03:17:03.699Z,17.46
2022-09-01T03:19:43.751Z,17.46
2022-09-01T03:22:12.486Z,17.44
2022-09-01T03:24:40.735Z,17.42
2022-09-01T03:27:11.673Z,17.43
2022-09-01T03:29:39.675Z,17.40
2022-09-01T03:32:08.423Z,17.31
2022-09-01T03:34:37.037Z,17.25
2022-09-01T03:37:07.401Z,17.28
2022-09-01T03:39:36.650Z,17.30
2022-09-01T03:42:04.877Z,17.27
2022-09-01T03:44:40.165Z,17.28
2022-09-01T03:47:12.211Z,17.27
2022-09-01T03:49:40.502Z,17.24
2022-09-01T03:52:08.889Z,17.22
2022-09-01T03:54:37.220Z,17.21
2022-09-01T03:57:10.106Z,17.21
2022-09-01T03:59:45.249Z,17.20
2022-09-01T04:02:15.174Z,17.15
2022-09-01T04:04:43.268Z,17.13
2022-09-01T04:07:15.537Z,17.10
2022-09-01T04:09:47.350Z,17.13
2022-09-01T04:12:17.168Z,17.11
2022-09-01T04:14:50.457Z,17.14
2022-09-01T04:17:35.739Z,17.12
2022-09-01T04:20:09.043Z,17.07
2022-09-01T04:22:38.159Z,17.03
2022-09-01T04:25:06.803Z,17.03
2022-09-01T04:27:40.780Z,16.98
2022-09-01T04:30:15.652Z,16.99
2022-09-01T04:32:47.616Z,17.00
2022-09-01T04:35:17.586Z,17.04
2022-09-01T04:37:50.095Z,17.06
2022-09-01T04:40:18.676Z,17.04
2022-09-01T04:42:48.719Z,17.08
2022-09-01T04:45:25.205Z,17.08
2022-09-01T04:47:53.973Z,17.07
2022-09-01T04:50:23.195Z,17.04
2022-09-01T04:53:16.031Z,17.00
2022-09-01T04:55:49.846Z,17.02
2022-09-01T04:58:23.285Z,17.02
2022-09-01T05:00:56.936Z,17.00
2022-09-01T05:03:25.305Z,16.98
2022-09-01T05:06:15.629Z,16.98
2022-09-01T05:08:52.117Z,17.01
2022-09-01T05:11:40.015Z,17.05
2022-09-01T05:14:19.082Z,17.10
2022-09-01T05:16:49.917Z,17.13
2022-09-01T05:19:20.905Z,17.17
2022-09-01T05:21:49.745Z,17.17
2022-09-01T05:24:21.667Z,17.20
2022-09-01T05:26:50.774Z,17.19
2022-09-01T05:29:21.075Z,17.18
2022-09-01T05:31:52.681Z,17.22
2022-09-01T05:34:26.953Z,17.21
2022-09-01T05:36:57.931Z,17.23
2022-09-01T05:39:26.799Z,17.29
2022-09-01T05:41:56.032Z,17.37
2022-09-01T05:44:24.182Z,17.45
2022-09-01T05:46:59.686Z,17.48
2022-09-01T05:49:33.130Z,17.54
2022-09-01T05:52:04.392Z,17.61
2022-09-01T05:54:33.825Z,17.63
2022-09-01T05:57:30.379Z,17.60
2022-09-01T05:59:55.882Z,17.60
2022-09-01T06:02:28.861Z,17.64
2022-09-01T06:05:01.132Z,17.69
2022-09-01T06:07:33.888Z,17.68
2022-09-01T06:10:05.668Z,17.68
2022-09-01T06:12:34.355Z,17.73
2022-09-01T06:15:02.455Z,17.82
2022-09-01T06:17:35.258Z,17.93
2022-09-01T06:20:10.470Z,18.04
2022-09-01T06:22:41.002Z,18.18
2022-09-01T06:25:10.715Z,18.27
2022-09-01T06:27:44.401Z,18.37
2022-09-01T06:30:20.112Z,18.47
2022-09-01T06:33:02.365Z,18.55
2022-09-01T06:35:35.051Z,18.58
2022-09-01T06:38:04.838Z,18.66
2022-09-01T06:40:42.738Z,18.73
2022-09-01T06:43:17.354Z,18.81
2022-09-01T06:45:54.298Z,18.89
2022-09-01T06:48:25.698Z,18.94
2022-09-01T06:51:21.070Z,18.99
2022-09-01T06:53:59.527Z,19.04
2022-09-01T06:56:33.914Z,19.08
2022-09-01T06:59:10.029Z,19.10
2022-09-01T07:01:39.527Z,19.20
2022-09-01T07:04:12.836Z,19.24
2022-09-01T07:10:21.028Z,19.32
2022-09-01T07:13:08.979Z,19.37
2022-09-01T07:18:30.819Z,19.44
2022-09-01T07:21:36.307Z,19.47
2022-09-01T07:24:10.485Z,19.55
2022-09-01T07:26:48.533Z,19.65
2022-09-01T07:29:19.940Z,19.70
2022-09-01T07:31:49.636Z,19.76
2022-09-01T07:42:30.043Z,19.27
2022-09-01T07:43:09.396Z,19.96
2022-09-01T07:46:36.294Z,20.03
2022-09-01T07:51:38.040Z,20.31
2022-09-01T07:54:08.739Z,20.38
2022-09-01T07:56:40.078Z,20.46
2022-09-01T07:59:12.745Z,20.58
2022-09-01T08:01:51.266Z,20.67
2022-09-01T08:04:22.962Z,20.80
2022-09-01T08:06:55.830Z,20.89
2022-09-01T08:09:37.975Z,20.97
2022-09-01T08:12:09.168Z,21.02
2022-09-01T08:14:46.660Z,21.05
2022-09-01T08:17:18.193Z,21.01
2022-09-01T08:20:08.484Z,20.98
2022-09-01T08:22:52.629Z,21.02
2022-09-01T08:25:27.151Z,21.13
2022-09-01T08:28:00.360Z,21.27
2022-09-01T08:30:30.004Z,21.44
2022-09-01T08:32:58.380Z,21.47
2022-09-01T08:35:26.999Z,21.51
2022-09-01T08:37:55.322Z,21.56
2022-09-01T08:40:24.581Z,21.60
2022-09-01T08:43:06.149Z,21.70
2022-09-01T08:45:43.389Z,21.81
2022-09-01T08:51:20.061Z,21.99
2022-09-01T08:54:11.883Z,22.14
2022-09-01T08:56:43.953Z,22.23
2022-09-01T08:59:16.214Z,22.28
2022-09-01T09:02:28.057Z,22.33
2022-09-01T09:05:15.603Z,22.41
2022-09-01T09:08:07.672Z,22.47
2022-09-01T09:10:43.635Z,22.52
2022-09-01T09:13:18.469Z,22.60
2022-09-01T09:16:06.965Z,22.75
2022-09-01T09:18:54.840Z,22.87
2022-09-01T09:21:27.876Z,22.93
2022-09-01T09:24:08.232Z,23.07
2022-09-01T09:26:43.490Z,23.13
2022-09-01T09:29:11.665Z,23.17
2022-09-01T09:31:45.933Z,23.23
2022-09-01T09:34:19.597Z,23.29
2022-09-01T09:36:53.880Z,23.36
2022-09-01T09:39:23.539Z,23.35
2022-09-01T09:42:09.359Z,23.49
2022-09-01T09:44:44.629Z,23.51
2022-09-01T09:47:43.478Z,23.52
2022-09-01T09:50:20.218Z,23.54
2022-09-01T09:52:49.590Z,23.58
2022-09-01T09:55:27.051Z,23.67
2022-09-01T09:58:00.067Z,23.72
2022-09-01T10:00:34.055Z,23.79
2022-09-01T10:03:08.864Z,23.93
2022-09-01T10:05:43.209Z,24.17
2022-09-01T10:08:14.852Z,24.20
2022-09-01T10:10:45.707Z,24.17
2022-09-01T10:13:27.531Z,24.13
2022-09-01T10:15:59.608Z,24.06
2022-09-01T10:18:36.245Z,23.98
2022-09-01T10:21:08.981Z,23.88
2022-09-01T10:23:38.762Z,23.81
2022-09-01T10:26:11.562Z,23.77
2022-09-01T10:28:50.643Z,23.76
2022-09-01T10:31:19.960Z,23.84
2022-09-01T10:33:50.823Z,23.91
2022-09-01T10:36:24.683Z,23.89
2022-09-01T10:38:58.762Z,23.88
2022-09-01T10:41:53.334Z,23.91
2022-09-01T10:44:33.802Z,23.96
2022-09-01T10:47:06.164Z,24.06
2022-09-01T10:50:01.795Z,24.17
2022-09-01T10:53:01.027Z,24.32
2022-09-01T10:55:36.547Z,24.45
2022-09-01T11:01:53.685Z,24.78
2022-09-01T11:04:24.275Z,24.89
2022-09-01T11:07:13.894Z,24.96
2022-09-01T11:09:45.447Z,25.04
2022-09-01T11:12:28.845Z,25.17
2022-09-01T11:14:59.979Z,25.30
2022-09-01T11:17:31.894Z,25.36
2022-09-01T11:20:10.207Z,25.47
2022-09-01T11:22:41.687Z,25.50
2022-09-01T11:25:41.993Z,25.49
2022-09-01T11:28:36.283Z,25.49
2022-09-01T11:31:17.716Z,25.53
2022-09-01T11:33:54.291Z,25.57
2022-09-01T11:36:29.662Z,25.63
2022-09-01T11:39:05.537Z,25.72
2022-09-01T11:41:57.564Z,25.91
2022-09-01T11:44:37.375Z,25.96
2022-09-01T11:47:13.592Z,26.09
2022-09-01T11:49:51.526Z,26.26
2022-09-01T11:52:21.919Z,26.33
2022-09-01T11:54:51.109Z,26.31
2022-09-01T11:57:26.705Z,26.27
2022-09-01T11:59:56.357Z,26.27
2022-09-01T12:02:27.860Z,26.26
2022-09-01T12:04:56.977Z,26.28
2022-09-01T12:07:30.872Z,26.21
2022-09-01T12:09:59.265Z,26.20
2022-09-01T12:12:33.025Z,26.21
2022-09-01T12:15:06.769Z,26.19
2022-09-01T12:17:35.450Z,26.18
2022-09-01T12:20:29.649Z,26.14
2022-09-01T12:22:59.082Z,26.10
2022-09-01T12:25:29.694Z,26.04
2022-09-01T12:28:01.316Z,26.03
2022-09-01T12:30:30.139Z,26.04
2022-09-01T12:35:48.586Z,26.16
2022-09-01T12:38:30.140Z,26.17
2022-09-01T12:40:59.032Z,26.20
2022-09-01T12:43:34.919Z,26.21
2022-09-01T12:46:06.406Z,26.24
2022-09-01T12:48:35.736Z,26.29
2022-09-01T12:51:09.446Z,26.34
2022-09-01T12:53:37.644Z,26.37
2022-09-01T12:56:29.758Z,26.43
2022-09-01T12:59:16.025Z,26.48
2022-09-01T13:01:46.119Z,26.57
2022-09-01T13:04:26.447Z,26.79
2022-09-01T13:06:56.628Z,27.09
2022-09-01T13:09:25.672Z,27.38
2022-09-01T13:12:09.184Z,27.61
2022-09-01T13:14:40.570Z,27.93
2022-09-01T13:17:14.062Z,27.97
2022-09-01T13:19:44.634Z,28.03
2022-09-01T13:22:12.586Z,28.16
2022-09-01T13:24:40.895Z,28.30
2022-09-01T13:27:24.490Z,28.61
2022-09-01T13:29:54.450Z,28.62
2022-09-01T13:32:24.417Z,28.46
2022-09-01T13:34:54.924Z,28.31
2022-09-01T13:37:24.521Z,28.15
2022-09-01T13:39:52.569Z,28.01
2022-09-01T13:42:20.883Z,27.86
2022-09-01T13:44:52.616Z,27.67
2022-09-01T13:47:29.478Z,27.53
2022-09-01T13:50:07.924Z,27.32
2022-09-01T13:52:38.573Z,27.18
2022-09-01T13:55:08.586Z,27.14
2022-09-01T13:57:37.038Z,27.16
2022-09-01T14:00:08.706Z,27.20
2022-09-01T14:02:42.978Z,27.22
2022-09-01T14:05:11.011Z,27.25
2022-09-01T14:07:38.910Z,27.33
2022-09-01T14:10:08.833Z,27.36
2022-09-01T14:12:37.367Z,27.32
2022-09-01T14:15:11.999Z,27.29
2022-09-01T14:17:43.108Z,27.43
2022-09-01T14:20:14.613Z,27.70
2022-09-01T14:22:42.852Z,27.88
2022-09-01T14:25:14.487Z,28.06
2022-09-01T14:27:44.714Z,28.22
2022-09-01T14:30:17.343Z,28.17
2022-09-01T14:32:47.377Z,28.20
2022-09-01T14:35:16.937Z,28.22
2022-09-01T14:37:45.572Z,28.17
2022-09-01T14:40:16.629Z,28.06
2022-09-01T14:42:48.984Z,28.04
2022-09-01T14:45:18.558Z,28.02
2022-09-01T14:47:48.644Z,27.94
2022-09-01T14:50:21.664Z,27.84
2022-09-01T14:52:53.946Z,27.75
2022-09-01T14:55:27.360Z,27.65
2022-09-01T14:57:56.275Z,27.59
2022-09-01T15:00:26.109Z,27.62
2022-09-01T15:02:56.669Z,28.02
2022-09-01T15:05:25.831Z,28.50
2022-09-01T15:07:54.811Z,29.01
2022-09-01T15:10:26.097Z,29.46
2022-09-01T15:12:55.904Z,29.79
2022-09-01T15:15:24.730Z,30.02
2022-09-01T15:17:54.859Z,30.21
2022-09-01T15:20:43.575Z,30.31
2022-09-01T15:23:12.369Z,30.53
2022-09-01T15:25:40.598Z,30.48
2022-09-01T15:28:09.161Z,30.35
2022-09-01T15:30:37.356Z,30.43
2022-09-01T15:33:07.836Z,30.53
2022-09-01T15:35:37.131Z,30.67
2022-09-01T15:38:06.970Z,30.67
2022-09-01T15:40:35.774Z,30.47
2022-09-01T15:43:06.206Z,30.73
2022-09-01T15:45:34.555Z,30.92
2022-09-01T15:48:02.948Z,31.32
2022-09-01T15:50:32.369Z,31.41
2022-09-01T15:53:02.848Z,31.73
2022-09-01T15:55:38.052Z,31.88
2022-09-01T15:58:06.152Z,31.87
2022-09-01T16:00:34.920Z,32.13
2022-09-01T16:03:03.034Z,32.25
2022-09-01T16:05:34.358Z,31.81
2022-09-01T16:08:04.773Z,32.13
2022-09-01T16:10:35.079Z,32.31
2022-09-01T16:13:04.588Z,32.37
2022-09-01T16:15:33.309Z,32.09
2022-09-01T16:18:21.874Z,31.62
2022-09-01T16:21:02.684Z,31.15
2022-09-01T16:23:41.425Z,31.18
2022-09-01T16:26:11.733Z,31.42
2022-09-01T16:28:40.331Z,31.41
2022-09-01T16:31:13.659Z,31.29
2022-09-01T16:33:48.763Z,31.46
2022-09-01T16:36:34.684Z,31.57
2022-09-01T16:39:14.814Z,31.64
2022-09-01T16:41:54.524Z,31.23
2022-09-01T16:44:38.367Z,30.82
2022-09-01T16:47:25.501Z,30.21
2022-09-01T16:50:05.174Z,29.83
2022-09-01T16:52:44.294Z,29.76
2022-09-01T16:55:22.547Z,29.81
2022-09-01T16:57:59.465Z,29.59
2022-09-01T17:00:39.153Z,29.11
2022-09-01T17:03:17.308Z,28.86
2022-09-01T17:05:54.663Z,28.63
2022-09-01T17:08:26.544Z,28.36
2022-09-01T17:10:59.446Z,28.12
2022-09-01T17:13:36.323Z,27.87
2022-09-01T17:16:07.885Z,27.61
2022-09-01T17:18:40.756Z,27.30
2022-09-01T17:21:14.762Z,27.13
2022-09-01T17:23:51.361Z,26.97
2022-09-01T17:26:24.628Z,26.75
2022-09-01T17:28:56.620Z,26.61
2022-09-01T17:31:46.129Z,26.46
2022-09-01T17:34:26.536Z,26.31
2022-09-01T17:37:06.160Z,26.14
2022-09-01T17:39:50.605Z,26.10
2022-09-01T17:42:30.151Z,26.01
2022-09-01T17:45:10.059Z,25.96
2022-09-01T17:47:51.150Z,25.81
2022-09-01T17:50:24.144Z,25.71
2022-09-01T17:53:02.106Z,25.52
2022-09-01T17:55:46.596Z,25.37
2022-09-01T17:58:31.275Z,25.25
2022-09-01T18:01:03.053Z,25.07
2022-09-01T18:04:05.977Z,24.94
2022-09-01T18:06:49.318Z,24.78
2022-09-01T18:09:21.479Z,24.64
2022-09-01T18:11:54.804Z,24.51
2022-09-01T18:14:28.461Z,24.38
2022-09-01T18:17:01.738Z,24.24
2022-09-01T18:19:36.971Z,24.15
2022-09-01T18:22:09.483Z,24.02
2022-09-01T18:24:48.905Z,23.89
2022-09-01T18:27:18.685Z,23.79
2022-09-01T18:29:48.863Z,23.71
2022-09-01T18:32:27.483Z,23.62
2022-09-01T18:35:13.283Z,23.51
2022-09-01T18:37:57.999Z,23.37
2022-09-01T18:40:31.611Z,23.27
2022-09-01T18:43:14.091Z,23.18
2022-09-01T18:45:49.660Z,23.10
2022-09-01T18:48:28.354Z,22.97
2022-09-01T18:51:03.327Z,22.88
2022-09-01T18:53:39.817Z,22.80
2022-09-01T18:56:20.722Z,22.72
2022-09-01T18:59:11.366Z,22.61
2022-09-01T19:01:50.290Z,22.54
2022-09-01T19:04:25.264Z,22.45
2022-09-01T19:07:05.089Z,22.35
2022-09-01T19:09:36.119Z,22.25
2022-09-01T19:12:16.958Z,22.13
2022-09-01T19:14:56.608Z,22.04
2022-09-01T19:17:46.105Z,21.99
2022-09-01T19:20:23.400Z,21.91
2022-09-01T19:22:59.075Z,21.83
2022-09-01T19:25:37.468Z,21.76
2022-09-01T19:28:14.105Z,21.69
2022-09-01T19:30:47.980Z,21.66
2022-09-01T19:33:24.357Z,21.66
2022-09-01T19:35:56.792Z,21.63
2022-09-01T19:38:28.932Z,21.54
2022-09-01T19:41:09.934Z,21.49
2022-09-01T19:43:42.902Z,21.41
2022-09-01T19:46:25.369Z,21.35
2022-09-01T19:48:59.210Z,21.25
2022-09-01T19:51:31.762Z,21.10
2022-09-01T19:54:04.561Z,21.03
2022-09-01T19:56:39.791Z,21.03
2022-09-01T19:59:18.100Z,20.96
2022-09-01T20:01:59.334Z,20.93
2022-09-01T20:04:38.979Z,20.83
2022-09-01T20:07:11.890Z,20.72
2022-09-01T20:09:46.239Z,20.63
2022-09-01T20:12:23.441Z,20.59
2022-09-01T20:15:04.207Z,20.56
2022-09-01T20:17:41.335Z,20.50
2022-09-01T20:20:12.401Z,20.41
2022-09-01T20:22:51.171Z,20.38
2022-09-01T20:25:22.309Z,20.36
2022-09-01T20:27:55.465Z,20.36
2022-09-01T20:30:26.026Z,20.37
2022-09-01T20:33:02.788Z,20.34
2022-09-01T20:35:39.803Z,20.30
2022-09-01T20:38:31.057Z,20.23
2022-09-01T20:41:05.443Z,20.20
2022-09-01T20:43:40.387Z,20.15
2022-09-01T20:46:08.839Z,20.13
2022-09-01T20:48:41.565Z,20.09
2022-09-01T20:51:15.041Z,20.07
2022-09-01T20:53:55.376Z,20.02
2022-09-01T20:56:29.404Z,20.02
2022-09-01T20:59:01.849Z,19.98
2022-09-01T21:01:36.638Z,19.96
2022-09-01T21:04:20.227Z,19.94
2022-09-01T21:06:54.448Z,19.96
2022-09-01T21:09:33.448Z,19.89
2022-09-01T21:12:08.805Z,19.89
2022-09-01T21:14:48.339Z,19.91
2022-09-01T21:17:25.865Z,19.79
2022-09-01T21:20:07.827Z,19.74
2022-09-01T21:22:35.957Z,19.73
2022-09-01T21:25:04.585Z,19.76
2022-09-01T21:27:38.057Z,19.70
2022-09-01T21:30:09.309Z,19.71
2022-09-01T21:32:39.687Z,19.65
2022-09-01T21:35:13.017Z,19.55
2022-09-01T21:37:41.197Z,19.54
2022-09-01T21:40:11.207Z,19.52
2022-09-01T21:42:45.487Z,19.51
2022-09-01T21:45:15.514Z,19.48
2022-09-01T21:47:45.961Z,19.44
2022-09-01T21:50:17.638Z,19.43
2022-09-01T21:52:48.394Z,19.47
2022-09-01T21:55:23.049Z,19.51
2022-09-01T21:57:51.947Z,19.52
2022-09-01T22:00:24.946Z,19.49
2022-09-01T22:02:54.605Z,19.47
2022-09-01T22:05:25.101Z,19.40
2022-09-01T22:07:54.858Z,19.30
2022-09-01T22:10:25.342Z,19.25
2022-09-01T22:12:54.227Z,19.08
2022-09-01T22:15:24.201Z,19.05
2022-09-01T22:17:53.142Z,19.01
2022-09-01T22:20:24.628Z,19.01
2022-09-01T22:22:56.669Z,18.93
2022-09-01T22:25:25.280Z,18.87
2022-09-01T22:27:53.264Z,18.89
2022-09-01T22:30:24.064Z,18.85
2022-09-01T22:32:52.020Z,18.88
2022-09-01T22:35:19.974Z,18.91
2022-09-01T22:37:49.521Z,18.89
2022-09-01T22:40:18.444Z,18.84
2022-09-01T22:42:51.104Z,18.81
2022-09-01T22:45:19.299Z,18.83
2022-09-01T22:47:47.250Z,18.83
2022-09-01T22:50:15.329Z,18.83
2022-09-01T22:52:45.751Z,18.83
2022-09-01T22:55:15.123Z,18.80
2022-09-01T22:57:43.657Z,18.78
2022-09-01T23:00:12.695Z,18.80
2022-09-01T23:02:41.097Z,18.80
2022-09-01T23:05:09.769Z,18.80
2022-09-01T23:07:39.797Z,18.81
2022-09-01T23:10:09.384Z,18.81
2022-09-01T23:12:38.776Z,18.78
2022-09-01T23:15:09.238Z,18.77
2022-09-01T23:17:37.849Z,18.78
2022-09-01T23:20:12.477Z,18.77
2022-09-01T23:22:41.018Z,18.77
2022-09-01T23:25:10.378Z,18.76
2022-09-01T23:27:40.213Z,18.72
2022-09-01T23:30:11.457Z,18.69
2022-09-01T23:32:39.475Z,18.68
2022-09-01T23:35:09.302Z,18.69
2022-09-01T23:37:37.308Z,18.69
2022-09-01T23:40:07.691Z,18.66
2022-09-01T23:42:36.044Z,18.62
2022-09-01T23:45:06.295Z,18.62
2022-09-01T23:47:36.579Z,18.60
2022-09-01T23:50:05.340Z,18.58
2022-09-01T23:52:33.430Z,18.56
2022-09-01T23:55:01.529Z,18.52
2022-09-01T23:57:29.657Z,18.51
2022-09-01T23:59:57.911Z,18.48
